地図

経路データ

SID SEASON NUMBER BASIN SUBBASIN NAME ISO_TIME NATURE LAT LON WMO_WIND WMO_PRES WMO_AGENCY TRACK_TYPE DIST2LAND LANDFALL IFLAG USA_AGENCY USA_ATCF_ID USA_LAT USA_LON USA_RECORD USA_STATUS USA_WIND USA_PRES USA_SSHS USA_R34_NE USA_R34_SE USA_R34_SW USA_R34_NW USA_R50_NE USA_R50_SE USA_R50_SW USA_R50_NW USA_R64_NE USA_R64_SE USA_R64_SW USA_R64_NW USA_POCI USA_ROCI USA_RMW USA_EYE TOKYO_LAT TOKYO_LON TOKYO_GRADE TOKYO_WIND TOKYO_PRES TOKYO_R50_DIR TOKYO_R50_LONG TOKYO_R50_SHORT TOKYO_R30_DIR TOKYO_R30_LONG TOKYO_R30_SHORT TOKYO_LAND CMA_LAT CMA_LON CMA_CAT CMA_WIND CMA_PRES HKO_LAT HKO_LON HKO_CAT HKO_WIND HKO_PRES NEWDELHI_LAT NEWDELHI_LON NEWDELHI_GRADE NEWDELHI_WIND NEWDELHI_PRES NEWDELHI_CI NEWDELHI_DP NEWDELHI_POCI REUNION_LAT REUNION_LON REUNION_TYPE REUNION_WIND REUNION_PRES REUNION_TNUM REUNION_CI REUNION_RMW REUNION_R34_NE REUNION_R34_SE REUNION_R34_SW REUNION_R34_NW REUNION_R50_NE REUNION_R50_SE REUNION_R50_SW REUNION_R50_NW REUNION_R64_NE REUNION_R64_SE REUNION_R64_SW REUNION_R64_NW BOM_LAT BOM_LON BOM_TYPE BOM_WIND BOM_PRES BOM_TNUM BOM_CI BOM_RMW BOM_R34_NE BOM_R34_SE BOM_R34_SW BOM_R34_NW BOM_R50_NE BOM_R50_SE BOM_R50_SW BOM_R50_NW BOM_R64_NE BOM_R64_SE BOM_R64_SW BOM_R64_NW BOM_ROCI BOM_POCI BOM_EYE BOM_POS_METHOD BOM_PRES_METHOD NADI_LAT NADI_LON NADI_CAT NADI_WIND NADI_PRES WELLINGTON_LAT WELLINGTON_LON WELLINGTON_WIND WELLINGTON_PRES DS824_LAT DS824_LON DS824_STAGE DS824_WIND DS824_PRES TD9636_LAT TD9636_LON TD9636_STAGE TD9636_WIND TD9636_PRES TD9635_LAT TD9635_LON TD9635_WIND TD9635_PRES TD9635_ROCI NEUMANN_LAT NEUMANN_LON NEUMANN_CLASS NEUMANN_WIND NEUMANN_PRES MLC_LAT MLC_LON MLC_CLASS MLC_WIND MLC_PRES USA_GUST BOM_GUST BOM_GUST_PER REUNION_GUST REUNION_GUST_PER USA_SEAHGT USA_SEARAD_NE USA_SEARAD_SE USA_SEARAD_SW USA_SEARAD_NW STORM_SPEED STORM_DIR
1882204N20089 1882 20 NI BB NOT_NAMED 1882-07-23 00:00:00 TS 20.0000 88.5000 main 174 147 _________O____ -1 20.0000 88.5000 TC 30 5 268
1882204N20089 1882 20 NI BB NOT_NAMED 1882-07-23 03:00:00 TS 19.9918 88.2234 main 147 122 _________PO___ -1 19.9878 88.0851 TC 30 20.0000 88.5000 1 6 268
1882204N20089 1882 20 NI BB NOT_NAMED 1882-07-23 06:00:00 TS 19.9839 87.8775 main 122 99 _________OP___ -1 20.0000 87.7000 TC 30 19.9598 88.1437 1 6 273
1882204N20089 1882 20 NI BB NOT_NAMED 1882-07-23 09:00:00 TS 20.0280 87.5385 main 89 53 _________PP___ -1 20.0748 87.3571 TC 30 19.9655 87.7803 1 7 287
1882204N20089 1882 20 NI BB NOT_NAMED 1882-07-23 12:00:00 TS 20.1817 87.2009 main 53 0 _________OP___ -1 20.3000 87.0000 TC 30 20.0634 87.4018 1 9 305
1882204N20089 1882 20 NI BB NOT_NAMED 1882-07-23 15:00:00 TS 20.5275 86.7864 main 0 0 _________PO___ -1 20.7549 86.5727 TC 30 20.3000 87.0000 1 12 315
1882204N20089 1882 20 NI BB NOT_NAMED 1882-07-23 18:00:00 TS 21.0002 86.3338 main 0 0 _________OP___ -1 21.3000 86.1000 TC 30 20.7004 86.5676 1 13 318
1882204N20089 1882 20 NI BB NOT_NAMED 1882-07-23 21:00:00 TS 21.4960 85.8599 main 0 0 _________PP___ -1 21.7873 85.6150 TC 30 21.2046 86.1049 1 13 317
1882204N20089 1882 20 NI BB NOT_NAMED 1882-07-24 00:00:00 TS 21.9658 85.3572 main 0 0 _________OP___ -1 22.2000 85.1000 TC 30 21.7315 85.6144 1 13 312
1882204N20089 1882 20 NI BB NOT_NAMED 1882-07-24 03:00:00 TS 22.3437 84.8286 main 0 0 _________PO___ -1 22.4874 84.5571 TC 30 22.2000 85.1000 1 12 303
1882204N20089 1882 20 NI BB NOT_NAMED 1882-07-24 06:00:00 TS 22.6023 84.2891 main 0 0 _________OP___ -1 22.7000 84.0000 TC 30 22.5045 84.5783 1 11 296
1882204N20089 1882 20 NI BB NOT_NAMED 1882-07-24 09:00:00 TS 22.8233 83.7465 main 0 0 _________PP___ -1 22.9072 83.4572 TC 30 22.7393 84.0357 1 11 292
1882204N20089 1882 20 NI BB NOT_NAMED 1882-07-24 12:00:00 TS 23.0147 83.1877 main 0 0 _________OP___ -1 23.1000 82.9000 TC 30 22.9294 83.4753 1 11 290
1882204N20089 1882 20 NI BB NOT_NAMED 1882-07-24 15:00:00 TS 23.2037 82.6037 main 0 0 _________PO___ -1 23.3074 82.3075 TC 30 23.1000 82.9000 1 12 289
1882204N20089 1882 20 NI BB NOT_NAMED 1882-07-24 18:00:00 TS 23.3988 81.9949 main 0 0 _________OP___ -1 23.5000 81.7000 TC 30 23.2977 82.2898 1 12 288
1882204N20089 1882 20 NI BB NOT_NAMED 1882-07-24 21:00:00 TS 23.5727 81.3737 main 0 0 _________PP___ -1 23.6650 81.0774 TC 30 23.4803 81.6699 1 12 286
1882204N20089 1882 20 NI BB NOT_NAMED 1882-07-25 00:00:00 TS 23.7239 80.7825 main 0 0 _________OP___ -1 23.8000 80.5000 TC 30 23.6478 81.0649 1 11 285
1882204N20089 1882 20 NI BB NOT_NAMED 1882-07-25 03:00:00 TS 23.8498 80.2636 main 0 0 _________PO___ -1 23.8996 80.0272 TC 30 23.8000 80.5000 1 9 285
1882204N20089 1882 20 NI BB NOT_NAMED 1882-07-25 06:00:00 TS 23.9671 79.8010 main 0 0 _________OP___ -1 24.0000 79.6000 TC 30 23.9343 80.0020 1 9 287
1882204N20089 1882 20 NI BB NOT_NAMED 1882-07-25 09:00:00 TS 24.0993 79.3482 main 0 0 _________PP___ -1 24.1424 79.1500 TC 30 24.0562 79.5465 1 9 288
1882204N20089 1882 20 NI BB NOT_NAMED 1882-07-25 12:00:00 TS 24.2375 78.9089 main 0 0 _________OP___ -1 24.3000 78.7000 TC 30 24.1751 79.1177 1 8 289
1882204N20089 1882 20 NI BB NOT_NAMED 1882-07-25 15:00:00 TS 24.3750 78.4712 main 0 0 _________PO___ -1 24.4499 78.2424 TC 30 24.3000 78.7000 1 8 290
1882204N20089 1882 20 NI BB NOT_NAMED 1882-07-25 18:00:00 TS 24.5073 78.0744 main 0 0 _________OP___ -1 24.6000 77.8000 TC 30 24.4377 78.2801 1 8 291
1882204N20089 1882 20 NI AS NOT_NAMED 1882-07-25 21:00:00 TS 24.6519 77.6698 main 0 0 _________PP___ -1 24.7502 77.3902 TC 30 24.5863 77.8562 1 8 292
1882204N20089 1882 20 NI AS NOT_NAMED 1882-07-26 00:00:00 TS 24.7945 77.2861 main 0 0 _________OP___ -1 24.9000 77.0000 TC 30 24.7418 77.4292 1 7 292
1882204N20089 1882 20 NI AS NOT_NAMED 1882-07-26 03:00:00 NR 24.9000 77.0000 main 0 __________O___ -1 TC 24.9000 77.0000 1 6 292

IBTrACS Databaseについて

本データベースは、米国NOAAが公開する1842年以降の世界の熱帯低気圧のベストトラックデータアーカイブInternational Best Track Archive for Climate Stewardship (IBTrACS)を、ウェブで閲覧しやすい形式に変換したものです。

最終更新日:2021-10-21